This is the latest recevied weather packets stored in our database for station/object KD5UIG. If no packets are shown the sender has not sent any weather packets the latest 10 day(s).
| Time | Temp. | Humidity | Pressure | Rain* | Wind** | Luminosity | Snow |
|---|---|---|---|---|---|---|---|
| 1777557057 | 15.56° C | 86% | 1014.7 hPa | 0 mm | - | 174 W/m² | - |
| 1777554958 | 14.44° C | 86% | 1015 hPa | 0 mm | - | 132 W/m² | - |
| 1777554057 | 13.89° C | 86% | 1014.7 hPa | 0 mm | - | 130 W/m² | - |
| 1777553455 | 13.33° C | 86% | 1014.5 hPa | 0 mm | - | 76 W/m² | - |
| 1777552558 | 13.33° C | 85% | 1014.6 hPa | 0 mm | - | 60 W/m² | - |
| 1777551055 | 13.33° C | 84% | 1014.7 hPa | 0 mm | - | 28 W/m² | - |
| 1777547755 | 13.33° C | 82% | 1014.3 hPa | 0 mm | - | 0 W/m² | - |
| 1777546555 | 13.89° C | 81% | 1014.2 hPa | 0 mm | - | 0 W/m² | - |
| 1777545354 | 13.89° C | 80% | 1014.4 hPa | 0 mm | - | 0 W/m² | - |
| 1777543555 | 14.44° C | 79% | 1014.3 hPa | 0 mm | - | 0 W/m² | - |
| 1777543255 | 15° C | 79% | 1014.4 hPa | 0 mm | - | 0 W/m² | - |
| 1777542360 | 15° C | 79% | 1014.5 hPa | 0 mm | - | 0 W/m² | - |
| 1777537865 | 15° C | 76% | 1014.2 hPa | 0 mm | - | 0 W/m² | - |
| 1777537558 | 15.56° C | 76% | 1014.4 hPa | 0 mm | - | 0 W/m² | - |
| 1777536959 | 15.56° C | 75% | 1014.4 hPa | 0 mm | - | 0 W/m² | - |
| 1777534265 | 16.11° C | 74% | 1014.4 hPa | 0 mm | - | 0 W/m² | - |
| 1777533055 | 16.11° C | 74% | 1014.5 hPa | 0 mm | - | 0 W/m² | - |
| 1777532454 | 16.11° C | 74% | 1014.5 hPa | 0 mm | - | 0 W/m² | - |
| 1777530356 | 16.67° C | 76% | 1015.3 hPa | 0 mm | - | 0 W/m² | - |
| 1777530055 | 16.67° C | 77% | 1015.4 hPa | 0 mm | - | 0 W/m² | - |
| 1777529157 | 16.67° C | 78% | 1015.1 hPa | 0 mm | - | 0 W/m² | - |
| 1777528556 | 16.67° C | 78% | 1015.2 hPa | 0 mm | - | 0 W/m² | - |
| 1777525855 | 16.67° C | 78% | 1015.5 hPa | 0 mm | - | 0 W/m² | - |
| 1777525555 | 16.67° C | 78% | 1015.5 hPa | 0 mm | - | 0 W/m² | - |
| 1777524655 | 16.67° C | 78% | 1015.8 hPa | 0 mm | - | 0 W/m² | - |
* Rain latest hour (hover to see other rain measurements)
** Current wind speed in m/s (hover to see current wind gust speed)